Eleonora Maersk — OVXP2 — position and weather

sailwx.info

Track history (hours):
 
Tides and Currents Weather Stations Pressure Air Temp Water Temp Dewpoint Dewpoint Depression Visibility Wind Speed Wind Dir Waves Ship Positions

Eleonora Maersk

Last reported at 2017-Dec-10 12:48 UTC. Time now 2017-Dec-13 17:05 UTC.
Position N 20°41' E 116°30'.

Length 398 m; draft 12 m.

Type: Ship (hazmat cat A). MMSI: 220477000.

Date/timePositionNaut miles runAvg speedWind from/ knotsBaromVisibWave heightAir tempDewpointWater temp
2017-Dec-10 12:48N 20°41' E 116°30'415.3
2017-Dec-10 12:30N 20°37' E 116°27'  
2017-Dec-07 05:02N 01°15' E 104°09'216.7
2017-Dec-07 04:56N 01°15' E 104°08'816.5
2017-Dec-07 04:25N 01°14' E 103°59'716.0
2017-Dec-07 04:00N 01°12' E 103°53'815.5
2017-Dec-07 03:30N 01°08' E 103°46'815.5
2017-Dec-07 03:00N 01°03' E 103°40'612.5
2017-Dec-07 02:30N 01°05' E 103°34'816.2
2017-Dec-07 02:00N 01°09' E 103°27'816.4
2017-Dec-07 01:30N 01°14' E 103°20'  
Track history (hours):
 
Tides and Currents Weather Stations Pressure Air Temp Water Temp Dewpoint Dewpoint Depression Visibility Wind Speed Wind Dir Waves Ship Positions

Eleonora Maersk

Last reported at 2017-Dec-10 12:48 UTC. Time now 2017-Dec-13 17:05 UTC.
Position N 20°41' E 116°30'.

Length 398 m; draft 12 m.

Type: Ship (hazmat cat A). MMSI: 220477000.

Date/timePositionNaut miles runAvg speedWind from/ knotsBaromVisibWave heightAir tempDewpointWater temp
2017-Dec-10 12:48N 20°41' E 116°30'415.3
2017-Dec-10 12:30N 20°37' E 116°27'  
2017-Dec-07 05:02N 01°15' E 104°09'216.7
2017-Dec-07 04:56N 01°15' E 104°08'816.5
2017-Dec-07 04:25N 01°14' E 103°59'716.0
2017-Dec-07 04:00N 01°12' E 103°53'815.5
2017-Dec-07 03:30N 01°08' E 103°46'815.5
2017-Dec-07 03:00N 01°03' E 103°40'612.5
2017-Dec-07 02:30N 01°05' E 103°34'816.2
2017-Dec-07 02:00N 01°09' E 103°27'816.4
2017-Dec-07 01:30N 01°14' E 103°20'  

Dump ship's entire track history